Time;durP1;ratioP1;P1;durP2;ratioP2;P2;SDS_P1;SDS_P2;PMS_P1;PMS_P2;Temp;Humidity;BMP_temperature;BMP_pressure;BME280_temperature;BME280_humidity;BME280_pressure;Samples;Min_cycle;Max_cycle;Signal;HPM_P1;HPM_P2
2022/07/29 00:00:46;;;;;;;21.77;20.50;;;21.70;42.60;;;;;;6217704;23;20159;-71
2022/07/29 00:03:13;;;;;;;21.63;20.83;;;21.70;42.50;;;;;;6217980;23;20904;-71
2022/07/29 00:05:40;;;;;;;22.53;21.50;;;21.60;43.00;;;;;;6244811;23;20378;-71
2022/07/29 00:08:06;;;;;;;21.17;20.17;;;21.60;43.30;;;;;;6244651;23;20444;-71
2022/07/29 00:10:32;;;;;;;21.90;20.90;;;21.60;43.30;;;;;;6217720;23;20405;-71
2022/07/29 00:12:58;;;;;;;23.27;21.80;;;21.60;43.60;;;;;;6217867;23;20885;-71
2022/07/29 00:15:24;;;;;;;23.07;21.70;;;21.60;43.10;;;;;;6218134;23;20370;-71
2022/07/29 00:17:49;;;;;;;23.83;22.73;;;21.60;44.00;;;;;;6218245;23;20158;-71
2022/07/29 00:20:15;;;;;;;22.23;21.07;;;21.50;44.60;;;;;;6217724;23;20156;-71
2022/07/29 00:22:41;;;;;;;23.50;22.30;;;21.50;44.90;;;;;;6217863;23;20159;-71
2022/07/29 00:25:07;;;;;;;23.40;22.30;;;21.50;45.10;;;;;;6243053;23;20156;-71
2022/07/29 00:27:34;;;;;;;22.40;21.30;;;21.50;45.10;;;;;;6218109;23;20184;-71
2022/07/29 00:30:00;;;;;;;23.00;22.00;;;21.40;45.40;;;;;;6217802;23;20524;-71
2022/07/29 00:32:26;;;;;;;21.83;20.80;;;21.50;45.60;;;;;;6218622;23;20698;-71
2022/07/29 00:37:36;;;;;;;21.90;20.90;;;21.40;46.10;;;;;;6246923;23;20227;-71
2022/07/29 00:40:03;;;;;;;21.80;20.80;;;21.40;45.80;;;;;;6219975;23;20382;-71
2022/07/29 00:42:28;;;;;;;22.67;21.50;;;21.30;46.40;;;;;;6220076;23;20156;-71
2022/07/29 00:44:54;;;;;;;22.40;21.27;;;21.40;46.00;;;;;;6246988;23;20370;-71
2022/07/29 00:47:20;;;;;;;23.03;21.70;;;21.20;46.60;;;;;;6246647;23;20171;-71
2022/07/29 00:49:46;;;;;;;22.97;21.87;;;21.40;45.50;;;;;;6246633;23;20155;-71
2022/07/29 00:52:12;;;;;;;21.67;20.77;;;21.30;46.10;;;;;;6219627;23;20151;-71
2022/07/29 00:54:39;;;;;;;22.10;20.90;;;21.30;46.00;;;;;;6219654;23;20385;-71
2022/07/29 00:57:07;;;;;;;22.30;21.23;;;21.30;46.10;;;;;;6219923;23;20444;-71
2022/07/29 00:59:33;;;;;;;22.67;21.37;;;21.50;47.00;;;;;;6219708;23;20408;-71
2022/07/29 01:01:59;;;;;;;22.10;21.00;;;21.60;45.70;;;;;;6219316;23;20405;-71
2022/07/29 01:04:26;;;;;;;21.87;20.97;;;21.70;44.90;;;;;;6246967;23;20375;-71
2022/07/29 01:06:53;;;;;;;22.23;21.23;;;21.60;44.80;;;;;;6219557;23;20179;-71
2022/07/29 01:09:19;;;;;;;21.43;20.33;;;21.80;44.10;;;;;;6219542;23;20711;-71
2022/07/29 01:11:47;;;;;;;21.30;20.40;;;21.70;44.40;;;;;;6219456;23;20790;-71
2022/07/29 01:14:14;;;;;;;22.23;20.90;;;21.60;45.00;;;;;;6219711;23;20382;-71
2022/07/29 01:16:53;;;;;;;22.20;21.30;;;21.50;45.30;;;;;;6246506;23;20417;-71
2022/07/29 01:19:59;;;;;;;22.13;21.03;;;21.50;45.40;;;;;;6219616;23;20375;-71
2022/07/29 01:22:55;;;;;;;22.00;21.10;;;21.50;45.10;;;;;;6219518;23;20385;-71
2022/07/29 01:25:39;;;;;;;21.40;20.50;;;21.40;45.20;;;;;;6240487;23;20750;-71
2022/07/29 01:28:17;;;;;;;21.93;20.90;;;21.30;45.10;;;;;;6246304;23;20418;-71
2022/07/29 01:30:46;;;;;;;23.03;22.03;;;21.20;45.50;;;;;;6244345;23;20460;-71
2022/07/29 01:33:48;;;;;;;21.00;20.10;;;21.20;45.50;;;;;;6218673;23;20381;-71
2022/07/29 01:36:11;;;;;;;20.50;19.43;;;21.20;45.40;;;;;;6245871;23;20389;-71
2022/07/29 01:38:41;;;;;;;21.20;20.20;;;21.10;46.00;;;;;;6219318;23;20509;-71
2022/07/29 01:41:10;;;;;;;22.33;21.30;;;21.10;45.50;;;;;;6245477;23;20869;-71
2022/07/29 01:43:50;;;;;;;22.00;21.10;;;21.20;45.30;;;;;;6218854;23;20792;-71
2022/07/29 01:46:24;;;;;;;22.23;21.17;;;21.10;45.50;;;;;;6219020;23;20402;-71
2022/07/29 01:48:58;;;;;;;20.20;19.30;;;21.20;45.30;;;;;;6219105;23;20387;-71
2022/07/29 01:51:30;;;;;;;21.07;20.27;;;21.30;44.70;;;;;;6218777;23;20401;-71
2022/07/29 01:54:42;;;;;;;23.83;22.53;;;21.10;45.20;;;;;;6245625;23;20691;-71
2022/07/29 01:57:10;;;;;;;21.37;20.37;;;21.10;45.40;;;;;;6190013;23;20386;-71
2022/07/29 01:59:38;;;;;;;21.93;20.83;;;21.10;45.30;;;;;;6218757;23;20936;-71
2022/07/29 02:02:05;;;;;;;20.63;19.83;;;21.10;45.80;;;;;;6218207;23;20432;-71
2022/07/29 02:04:35;;;;;;;22.77;21.77;;;21.20;45.10;;;;;;6218885;23;20740;-71
2022/07/29 02:07:05;;;;;;;21.97;21.07;;;21.10;45.60;;;;;;6218487;23;20560;-71
2022/07/29 02:09:33;;;;;;;22.43;21.50;;;21.00;45.20;;;;;;6218500;23;20382;-71
2022/07/29 02:12:00;;;;;;;22.17;21.00;;;21.00;45.00;;;;;;6245309;23;20374;-71
2022/07/29 02:14:29;;;;;;;21.23;20.33;;;20.90;45.30;;;;;;6218658;23;20458;-71
2022/07/29 02:16:57;;;;;;;21.83;20.93;;;20.80;45.70;;;;;;6218318;23;20418;-71
2022/07/29 02:19:26;;;;;;;21.10;20.10;;;20.90;46.10;;;;;;6218728;23;20387;-71
2022/07/29 02:21:54;;;;;;;21.40;20.50;;;20.90;45.10;;;;;;6245092;23;20835;-71
2022/07/29 02:24:22;;;;;;;22.03;21.23;;;20.90;44.80;;;;;;6245306;23;20386;-71
2022/07/29 02:26:49;;;;;;;23.10;22.20;;;20.90;45.00;;;;;;6218409;23;20918;-71
2022/07/29 02:29:16;;;;;;;23.07;22.17;;;20.80;44.80;;;;;;6245391;23;20714;-71
2022/07/29 02:31:47;;;;;;;22.40;21.50;;;20.90;45.40;;;;;;6244834;23;20366;-71
2022/07/29 02:34:14;;;;;;;23.40;22.40;;;20.90;44.80;;;;;;6218761;23;20843;-71
2022/07/29 02:36:41;;;;;;;22.07;21.17;;;20.80;45.10;;;;;;6218981;23;20462;-71
2022/07/29 02:39:08;;;;;;;22.00;21.00;;;20.80;45.30;;;;;;6218233;23;20454;-71
2022/07/29 02:41:44;;;;;;;21.90;20.90;;;20.90;44.90;;;;;;6218286;23;20740;-71
2022/07/29 02:44:19;;;;;;;21.30;20.50;;;20.70;44.90;;;;;;6245259;23;20430;-71
2022/07/29 02:47:04;;;;;;;22.07;21.17;;;20.80;44.80;;;;;;6244964;23;20944;-71
2022/07/29 02:49:42;;;;;;;22.47;21.37;;;20.80;44.80;;;;;;6218524;23;20382;-71
2022/07/29 02:52:08;;;;;;;22.03;20.90;;;20.80;44.70;;;;;;6218096;23;20381;-71
2022/07/29 02:54:51;;;;;;;21.87;20.97;;;21.00;44.10;;;;;;6243388;23;20714;-71
2022/07/29 02:57:32;;;;;;;20.83;19.97;;;21.00;44.00;;;;;;6218351;23;20154;-71
2022/07/29 03:00:04;;;;;;;21.80;20.80;;;20.90;44.20;;;;;;6218117;23;20406;-71
2022/07/29 03:02:35;;;;;;;22.53;21.53;;;21.00;43.70;;;;;;6218047;23;20373;-71
2022/07/29 03:05:02;;;;;;;22.13;21.23;;;21.10;43.70;;;;;;6218174;23;20408;-71
2022/07/29 03:07:29;;;;;;;21.37;20.43;;;21.10;43.30;;;;;;6218388;23;20466;-71
2022/07/29 03:09:56;;;;;;;22.73;21.73;;;21.20;42.90;;;;;;6217533;23;20381;-71
2022/07/29 03:12:23;;;;;;;23.07;22.17;;;21.20;42.50;;;;;;6244878;23;20370;-71
2022/07/29 03:14:49;;;;;;;22.73;21.70;;;21.30;43.10;;;;;;6218355;23;20378;-71
2022/07/29 03:17:16;;;;;;;22.77;21.77;;;21.60;41.70;;;;;;6217798;23;20473;-71
2022/07/29 03:19:42;;;;;;;21.90;21.00;;;21.80;40.10;;;;;;6218159;23;20723;-71
2022/07/29 03:22:09;;;;;;;20.63;19.73;;;22.00;39.40;;;;;;6217815;23;20389;-71
2022/07/29 03:24:36;;;;;;;20.03;19.17;;;21.60;41.70;;;;;;6244736;23;20366;-71
2022/07/29 03:27:02;;;;;;;21.27;20.40;;;21.20;42.70;;;;;;6217842;23;20425;-71
2022/07/29 03:29:28;;;;;;;20.87;19.97;;;21.10;43.40;;;;;;6245232;23;20371;-71
2022/07/29 03:31:54;;;;;;;21.23;20.43;;;21.00;43.70;;;;;;6217348;23;20406;-71
2022/07/29 03:34:20;;;;;;;23.70;22.70;;;20.90;44.40;;;;;;6218016;23;20174;-71
2022/07/29 03:36:46;;;;;;;22.70;21.70;;;20.90;44.90;;;;;;6218391;23;20527;-71
2022/07/29 03:39:18;;;;;;;23.20;22.20;;;20.90;44.50;;;;;;6244475;23;20405;-71
2022/07/29 03:41:47;;;;;;;23.67;22.77;;;20.90;44.40;;;;;;6218080;23;20381;-71
2022/07/29 03:44:15;;;;;;;23.60;22.70;;;20.80;45.10;;;;;;6244828;23;20367;-71
2022/07/29 03:46:42;;;;;;;24.07;22.97;;;20.60;45.40;;;;;;6217580;23;20485;-71
2022/07/29 03:49:10;;;;;;;22.50;21.20;;;20.70;45.20;;;;;;6217899;23;20393;-71
2022/07/29 03:51:36;;;;;;;22.50;21.50;;;20.70;45.40;;;;;;6217797;23;20474;-71
2022/07/29 03:54:03;;;;;;;21.40;20.50;;;20.70;45.60;;;;;;6217884;23;20897;-71
2022/07/29 03:56:30;;;;;;;24.07;23.07;;;20.80;45.00;;;;;;6217946;23;20794;-71
2022/07/29 03:58:56;;;;;;;22.40;21.50;;;21.00;44.30;;;;;;6218062;23;20404;-71
2022/07/29 04:01:23;;;;;;;25.13;23.90;;;20.90;44.40;;;;;;6244759;23;20442;-71
2022/07/29 04:03:50;;;;;;;25.47;24.27;;;20.80;45.00;;;;;;6245415;23;20148;-72
2022/07/29 04:06:16;;;;;;;24.40;23.30;;;20.70;45.40;;;;;;6218573;23;20374;-71
2022/07/29 04:08:42;;;;;;;25.83;24.63;;;20.80;44.80;;;;;;6221003;23;20855;-71
2022/07/29 04:11:08;;;;;;;23.03;22.13;;;20.70;45.10;;;;;;6221215;23;20642;-72
2022/07/29 04:13:34;;;;;;;23.70;22.17;;;21.00;43.70;;;;;;6221465;23;20382;-71
2022/07/29 04:16:00;;;;;;;22.00;21.20;;;21.10;42.80;;;;;;6221151;23;20147;-71
2022/07/29 04:18:25;;;;;;;23.70;22.60;;;21.00;42.80;;;;;;6221612;23;20159;-71
2022/07/29 04:20:51;;;;;;;24.07;23.07;;;21.10;42.60;;;;;;6221595;23;20190;-71
2022/07/29 04:23:17;;;;;;;24.57;23.57;;;21.00;42.80;;;;;;6221218;23;20165;-71
2022/07/29 04:25:42;;;;;;;23.80;22.80;;;20.80;43.20;;;;;;6248714;23;20201;-70
2022/07/29 04:28:09;;;;;;;23.50;22.47;;;20.60;44.10;;;;;;6221292;23;20171;-68
2022/07/29 04:30:36;;;;;;;24.17;23.13;;;20.70;44.10;;;;;;6220609;23;20151;-68
2022/07/29 04:33:04;;;;;;;24.17;23.17;;;20.60;44.50;;;;;;6220849;23;20472;-68
2022/07/29 04:35:33;;;;;;;23.77;22.67;;;20.50;45.10;;;;;;6221183;23;20374;-68
2022/07/29 04:37:59;;;;;;;22.63;21.67;;;20.50;45.20;;;;;;6220414;23;20382;-68
2022/07/29 04:40:25;;;;;;;23.30;22.30;;;20.50;45.00;;;;;;6247617;23;20423;-68
2022/07/29 04:42:50;;;;;;;24.50;23.50;;;20.40;45.40;;;;;;6246169;23;20163;-68
2022/07/29 04:45:16;;;;;;;25.03;24.03;;;20.60;45.50;;;;;;6220606;23;20167;-68
2022/07/29 04:47:42;;;;;;;25.00;24.00;;;20.90;43.00;;;;;;6221156;23;20206;-68
2022/07/29 04:50:08;;;;;;;24.90;23.80;;;21.20;42.00;;;;;;6220526;23;20158;-68
2022/07/29 04:52:35;;;;;;;25.13;23.80;;;21.40;41.60;;;;;;6220782;23;20151;-68
2022/07/29 04:55:01;;;;;;;24.47;23.37;;;21.60;40.80;;;;;;6220818;23;20386;-68
2022/07/29 04:57:27;;;;;;;22.17;21.17;;;21.80;40.30;;;;;;6248112;23;20458;-68
2022/07/29 04:59:55;;;;;;;22.50;21.60;;;21.90;39.60;;;;;;6220075;23;20456;-68
2022/07/29 05:02:21;;;;;;;22.33;21.43;;;21.50;40.60;;;;;;6220946;23;20196;-68
2022/07/29 05:04:47;;;;;;;22.67;21.67;;;21.20;41.40;;;;;;6221225;23;20404;-68
2022/07/29 05:07:14;;;;;;;23.87;22.87;;;21.00;42.60;;;;;;6220217;23;20422;-68
2022/07/29 05:09:40;;;;;;;24.73;23.43;;;20.90;42.70;;;;;;6220830;23;20385;-68
2022/07/29 05:12:07;;;;;;;24.10;23.10;;;20.70;43.50;;;;;;6247406;23;20380;-68
2022/07/29 05:14:33;;;;;;;23.70;22.60;;;20.70;43.20;;;;;;6247372;23;20424;-67
2022/07/29 05:16:59;;;;;;;23.80;22.70;;;20.70;43.40;;;;;;6247569;23;20380;-68
2022/07/29 05:19:24;;;;;;;23.60;22.60;;;20.80;42.60;;;;;;6219804;23;20159;-68
2022/07/29 05:21:50;;;;;;;22.60;21.70;;;20.60;43.10;;;;;;6243666;23;20465;-67
2022/07/29 05:24:16;;;;;;;22.10;21.20;;;20.50;43.90;;;;;;6244599;23;20159;-67
2022/07/29 05:26:42;;;;;;;23.23;22.13;;;20.70;43.10;;;;;;6219045;23;20151;-68
2022/07/29 05:29:08;;;;;;;21.90;21.00;;;20.80;42.40;;;;;;6245633;23;20378;-68
2022/07/29 05:31:34;;;;;;;21.60;20.70;;;20.90;42.00;;;;;;6218982;23;20409;-68
2022/07/29 05:34:00;;;;;;;22.63;21.73;;;20.90;41.50;;;;;;6219029;23;20382;-68
2022/07/29 05:36:26;;;;;;;23.80;22.83;;;21.00;41.20;;;;;;6218815;23;20199;-68
2022/07/29 05:38:52;;;;;;;24.03;23.03;;;20.90;41.60;;;;;;6219099;23;20866;-68
2022/07/29 05:41:19;;;;;;;22.30;21.40;;;21.00;41.20;;;;;;6218827;23;20592;-69
2022/07/29 05:43:44;;;;;;;25.03;24.03;;;21.00;41.20;;;;;;6245616;23;20375;-69
2022/07/29 05:46:11;;;;;;;23.50;22.53;;;21.10;41.30;;;;;;6218821;23;21201;-68
2022/07/29 05:48:36;;;;;;;22.20;21.30;;;21.20;40.50;;;;;;6246004;23;20214;-68
2022/07/29 05:51:03;;;;;;;21.57;20.60;;;21.30;40.10;;;;;;6218483;23;20386;-68
2022/07/29 05:53:28;;;;;;;21.87;20.97;;;21.30;40.10;;;;;;6219194;23;20230;-68
2022/07/29 05:55:54;;;;;;;21.33;20.53;;;21.40;39.80;;;;;;6218724;23;20879;-68
2022/07/29 05:58:23;;;;;;;22.43;21.20;;;21.50;39.40;;;;;;6245626;23;20148;-70
2022/07/29 06:00:49;;;;;;;21.27;20.37;;;21.50;39.50;;;;;;6243645;23;20175;-69
2022/07/29 06:03:15;;;;;;;21.80;20.90;;;21.50;39.60;;;;;;6218160;23;20386;-69
2022/07/29 06:05:41;;;;;;;23.20;22.20;;;21.50;39.40;;;;;;6218704;23;20205;-69
2022/07/29 06:08:07;;;;;;;23.63;22.63;;;21.70;38.70;;;;;;6244274;23;20421;-70
2022/07/29 06:10:34;;;;;;;22.70;21.80;;;21.80;38.60;;;;;;6218215;23;20218;-69
2022/07/29 06:13:00;;;;;;;22.90;22.00;;;21.90;38.70;;;;;;6218710;23;20374;-69
2022/07/29 06:15:26;;;;;;;23.60;22.63;;;22.10;38.10;;;;;;6218457;23;20382;-69
2022/07/29 06:17:52;;;;;;;22.83;21.93;;;22.10;37.80;;;;;;6218861;23;20143;-69
2022/07/29 06:20:18;;;;;;;21.77;20.73;;;22.00;38.10;;;;;;6218469;23;20234;-69
2022/07/29 06:22:44;;;;;;;20.90;20.00;;;22.00;38.10;;;;;;6218855;23;20409;-70
2022/07/29 06:25:10;;;;;;;21.87;20.77;;;22.10;38.00;;;;;;6245395;23;20397;-70
2022/07/29 06:27:35;;;;;;;23.53;22.53;;;22.00;38.00;;;;;;6245670;23;20202;-69
2022/07/29 06:30:01;;;;;;;22.23;21.23;;;22.20;37.90;;;;;;6217926;23;20383;-69
2022/07/29 06:32:27;;;;;;;21.60;20.70;;;22.20;37.50;;;;;;6219092;23;20593;-69
2022/07/29 06:34:59;;;;;;;21.40;20.50;;;22.30;37.50;;;;;;6219035;23;20390;-70
2022/07/29 06:37:27;;;;;;;23.00;21.60;;;22.40;37.10;;;;;;6218571;23;20662;-70
2022/07/29 06:40:59;;;;;;;21.27;20.37;;;22.40;36.70;;;;;;6218403;23;20745;-69
2022/07/29 06:42:42;;;;;;;21.90;21.00;;;22.40;36.70;;;;;;6245708;23;20889;-69
2022/07/29 06:45:09;;;;;;;23.67;22.67;;;22.50;36.70;;;;;;6218989;23;20389;-68
2022/07/29 06:47:35;;;;;;;22.80;21.90;;;22.60;36.40;;;;;;6246048;23;20414;-69
2022/07/29 06:50:00;;;;;;;22.63;21.63;;;22.70;35.90;;;;;;6245442;23;20403;-69
2022/07/29 06:52:26;;;;;;;22.40;21.50;;;22.80;35.40;;;;;;6218578;23;20147;-70
2022/07/29 06:54:52;;;;;;;23.17;22.17;;;22.80;35.20;;;;;;6245802;23;20637;-69
2022/07/29 06:57:18;;;;;;;22.90;21.90;;;22.90;35.10;;;;;;6245717;23;20185;-68
2022/07/29 06:59:44;;;;;;;21.93;20.93;;;23.10;34.80;;;;;;6218342;23;20178;-69
2022/07/29 07:02:10;;;;;;;21.40;20.40;;;23.10;35.00;;;;;;6217708;23;20382;-69
2022/07/29 07:04:35;;;;;;;21.00;20.20;;;23.10;34.90;;;;;;6245123;23;20156;-69
2022/07/29 07:07:01;;;;;;;21.67;20.77;;;23.20;34.50;;;;;;6217527;23;20183;-69
2022/07/29 07:09:36;;;;;;;21.10;20.20;;;23.20;34.20;;;;;;6218107;23;20178;-69
2022/07/29 07:12:01;;;;;;;21.87;20.83;;;23.30;33.90;;;;;;6215652;23;20139;-69
2022/07/29 07:14:27;;;;;;;22.43;21.33;;;23.50;33.00;;;;;;6217430;23;20378;-69
2022/07/29 07:16:53;;;;;;;22.50;21.50;;;23.50;33.00;;;;;;6217531;23;20608;-70
2022/07/29 07:19:19;;;;;;;21.23;20.33;;;23.50;32.90;;;;;;6217819;23;20386;-69
2022/07/29 07:21:45;;;;;;;21.50;20.50;;;23.60;33.10;;;;;;6217490;23;20842;-69
2022/07/29 07:24:20;;;;;;;21.73;20.83;;;23.70;33.10;;;;;;6217818;23;20191;-70
2022/07/29 07:26:51;;;;;;;21.97;20.93;;;23.70;32.50;;;;;;6243299;23;20475;-69
2022/07/29 07:29:23;;;;;;;24.43;23.47;;;23.70;33.20;;;;;;6217187;23;20367;-70
2022/07/29 07:32:00;;;;;;;23.53;22.53;;;23.80;32.30;;;;;;6242952;23;20870;-69
2022/07/29 07:34:53;;;;;;;23.10;21.67;;;23.90;31.50;;;;;;6216863;23;20854;-69
2022/07/29 07:37:37;;;;;;;23.70;22.60;;;23.90;32.50;;;;;;6217679;23;20382;-69
2022/07/29 07:40:11;;;;;;;23.50;22.40;;;23.80;31.90;;;;;;6217655;23;20378;-69
2022/07/29 07:43:21;;;;;;;;;;;;;;;;;;;;;
2022/07/29 07:49:10;;;;;;;21.70;20.80;;;23.90;29.70;;;;;;6244061;23;20413;-69
2022/07/29 07:51:38;;;;;;;21.23;20.07;;;24.00;30.00;;;;;;6216687;23;20413;-69
2022/07/29 07:54:07;;;;;;;21.50;20.57;;;24.10;29.10;;;;;;6244426;23;20377;-69
2022/07/29 07:56:42;;;;;;;21.60;20.60;;;24.10;28.60;;;;;;6218032;23;20366;-69
2022/07/29 07:59:08;;;;;;;21.33;20.43;;;24.10;29.00;;;;;;6242465;23;20400;-69
2022/07/29 08:01:53;;;;;;;21.30;20.40;;;24.20;28.90;;;;;;6244081;23;20388;-69
2022/07/29 08:04:28;;;;;;;21.63;20.63;;;24.10;28.60;;;;;;6216694;23;20385;-69
2022/07/29 08:07:04;;;;;;;22.97;21.50;;;24.20;28.80;;;;;;6244371;23;20384;-69
2022/07/29 08:09:38;;;;;;;20.90;20.00;;;24.20;27.40;;;;;;6217545;23;20363;-69
2022/07/29 08:12:10;;;;;;;21.40;20.20;;;24.30;28.10;;;;;;6217040;23;20394;-69
2022/07/29 08:14:58;;;;;;;21.17;20.27;;;24.30;27.90;;;;;;6217570;23;20385;-69
2022/07/29 08:17:27;;;;;;;21.00;19.80;;;24.30;26.70;;;;;;6217096;23;20393;-69
2022/07/29 08:20:16;;;;;;;;;;;;;;;;;;;;;
2022/07/29 08:22:48;;;;;;;21.43;20.50;;;24.30;27.50;;;;;;6244315;23;20738;-69
2022/07/29 08:25:14;;;;;;;21.33;20.40;;;24.30;27.30;;;;;;6216984;23;20745;-69
2022/07/29 08:27:48;;;;;;;20.60;19.63;;;24.30;26.80;;;;;;6217253;23;20426;-69
2022/07/29 08:30:29;;;;;;;21.27;20.47;;;24.30;25.50;;;;;;6216194;23;20416;-69
2022/07/29 08:32:56;;;;;;;22.37;21.17;;;24.40;26.50;;;;;;6217074;23;20413;-69
2022/07/29 08:35:24;;;;;;;22.13;21.03;;;24.40;26.80;;;;;;6242276;23;20381;-69
2022/07/29 08:37:54;;;;;;;22.53;21.47;;;24.40;26.50;;;;;;6217617;23;20390;-69
2022/07/29 08:40:23;;;;;;;22.03;21.03;;;24.60;26.20;;;;;;6217406;23;20385;-69
2022/07/29 08:43:07;;;;;;;20.90;20.00;;;24.60;25.40;;;;;;6216616;23;20383;-69
2022/07/29 08:46:39;;;;;;;;;;;;;;;;;;;;;
2022/07/29 08:53:28;;;;;;;18.93;18.13;;;24.80;24.80;;;;;;6079563;23;20708;-69
2022/07/29 08:55:54;;;;;;;21.03;20.07;;;25.00;23.60;;;;;;6140276;23;20371;-69
2022/07/29 08:58:31;;;;;;;20.43;19.53;;;25.00;23.60;;;;;;6218694;23;20378;-69
2022/07/29 09:01:01;;;;;;;20.17;19.27;;;25.40;22.40;;;;;;6218698;23;20394;-69
2022/07/29 09:03:34;;;;;;;20.43;19.33;;;25.50;22.80;;;;;;6218801;23;20850;-69
2022/07/29 09:06:01;;;;;;;19.90;19.10;;;25.30;22.70;;;;;;6219080;23;20458;-69
2022/07/29 09:08:30;;;;;;;20.50;19.70;;;25.20;22.70;;;;;;6218987;23;20925;-69
2022/07/29 09:10:57;;;;;;;21.90;20.60;;;25.10;23.40;;;;;;6217298;23;20461;-69
2022/07/29 09:13:23;;;;;;;20.50;19.40;;;25.10;23.50;;;;;;6218899;23;20804;-69
2022/07/29 09:15:49;;;;;;;20.30;19.50;;;25.10;23.50;;;;;;6219080;23;20409;-69
2022/07/29 09:18:34;;;;;;;20.50;19.40;;;25.00;23.50;;;;;;6244304;23;20155;-69
2022/07/29 09:24:03;;;;;;;19.33;18.43;;;25.00;23.50;;;;;;6245955;23;20731;-69
2022/07/29 09:26:33;;;;;;;19.60;18.40;;;25.10;23.50;;;;;;6243880;23;20459;-69
2022/07/29 09:28:59;;;;;;;19.53;18.63;;;25.10;23.70;;;;;;6245528;23;20785;-69
2022/07/29 09:31:36;;;;;;;19.83;18.63;;;25.10;23.70;;;;;;6218476;23;20386;-69
2022/07/29 09:34:05;;;;;;;19.50;18.40;;;25.10;23.40;;;;;;6218419;23;20151;-69
2022/07/29 09:36:31;;;;;;;20.97;19.27;;;25.30;22.30;;;;;;6245623;23;20473;-69
2022/07/29 09:39:00;;;;;;;18.70;17.90;;;25.80;21.20;;;;;;6218755;23;20406;-70
2022/07/29 09:41:27;;;;;;;20.10;18.80;;;26.30;20.40;;;;;;6218522;23;20425;-69
2022/07/29 09:43:54;;;;;;;19.53;18.63;;;26.60;19.60;;;;;;6218868;23;20385;-69
2022/07/29 09:46:20;;;;;;;19.93;18.77;;;26.70;19.10;;;;;;6218750;23;20516;-69
2022/07/29 09:49:09;;;;;;;19.13;18.10;;;26.80;19.10;;;;;;6218541;23;20446;-69
2022/07/29 09:51:35;;;;;;;19.70;18.80;;;26.70;19.50;;;;;;6218517;23;20222;-70
2022/07/29 09:54:03;;;;;;;19.87;18.90;;;26.60;19.90;;;;;;6218722;23;20464;-69
2022/07/29 09:56:40;;;;;;;19.80;18.63;;;26.40;20.50;;;;;;6218597;23;20171;-69
2022/07/29 09:59:07;;;;;;;20.43;19.27;;;26.30;21.10;;;;;;6218585;23;20402;-69
2022/07/29 10:01:32;;;;;;;22.13;20.50;;;26.50;20.90;;;;;;6218673;23;20370;-70
2022/07/29 10:04:01;;;;;;;21.00;20.20;;;26.40;20.50;;;;;;6218029;23;20389;-70
2022/07/29 10:06:28;;;;;;;21.27;20.37;;;26.50;20.90;;;;;;6244927;23;20569;-70
2022/07/29 10:08:54;;;;;;;21.23;20.10;;;26.30;21.00;;;;;;6218476;23;20437;-71
2022/07/29 10:11:20;;;;;;;20.90;19.80;;;26.20;21.20;;;;;;6218014;23;20710;-71
2022/07/29 10:13:48;;;;;;;19.90;18.67;;;26.10;21.00;;;;;;6218395;23;20375;-71
2022/07/29 10:16:15;;;;;;;20.10;19.03;;;26.00;21.30;;;;;;6218485;23;20382;-71
2022/07/29 10:18:43;;;;;;;20.63;18.97;;;26.10;20.90;;;;;;6218420;23;20421;-71
2022/07/29 10:21:09;;;;;;;20.00;19.00;;;26.10;21.30;;;;;;6218053;23;20847;-71
2022/07/29 10:23:36;;;;;;;19.20;18.40;;;26.10;20.90;;;;;;6243788;23;20849;-71
2022/07/29 10:26:03;;;;;;;19.60;18.60;;;26.20;20.80;;;;;;6217970;23;20378;-71
2022/07/29 10:28:30;;;;;;;19.43;18.43;;;26.00;21.60;;;;;;6218260;23;20509;-71
2022/07/29 10:31:03;;;;;;;20.90;19.90;;;25.80;21.90;;;;;;6218116;23;20386;-71
2022/07/29 10:34:02;;;;;;;19.70;18.60;;;25.70;22.40;;;;;;6217956;23;20381;-71
2022/07/29 10:36:49;;;;;;;20.47;19.40;;;25.70;22.90;;;;;;6245395;23;20398;-71
2022/07/29 10:39:15;;;;;;;19.73;18.83;;;25.60;23.10;;;;;;6243441;23;20833;-71
2022/07/29 10:41:52;;;;;;;19.60;18.57;;;25.50;23.40;;;;;;6244521;23;20386;-71
2022/07/29 10:44:20;;;;;;;21.00;19.27;;;25.40;23.80;;;;;;6243479;23;20486;-71
2022/07/29 10:46:46;;;;;;;20.43;19.10;;;25.30;23.80;;;;;;6218230;23;20707;-71
2022/07/29 10:49:21;;;;;;;21.10;20.00;;;25.30;24.00;;;;;;6217552;23;20465;-70
2022/07/29 10:52:05;;;;;;;19.87;18.77;;;25.20;24.50;;;;;;6218783;23;20385;-71
2022/07/29 10:54:53;;;;;;;19.50;18.50;;;25.20;25.20;;;;;;6243745;23;20370;-69
2022/07/29 10:57:22;;;;;;;19.70;18.70;;;25.10;25.10;;;;;;6218657;23;20382;-69
2022/07/29 11:00:09;;;;;;;20.27;19.27;;;25.10;25.10;;;;;;6243833;23;20464;-69
2022/07/29 11:02:42;;;;;;;20.77;19.63;;;25.00;26.10;;;;;;6243515;23;20377;-69
2022/07/29 11:05:24;;;;;;;20.17;19.23;;;25.00;26.80;;;;;;6243775;23;20905;-69
2022/07/29 11:08:19;;;;;;;20.23;19.33;;;24.90;27.00;;;;;;6218700;23;20741;-69
2022/07/29 11:10:45;;;;;;;23.97;22.57;;;24.80;28.40;;;;;;6244449;23;20390;-69
2022/07/29 11:13:11;;;;;;;23.60;22.40;;;24.60;36.60;;;;;;6218573;23;20374;-69
2022/07/29 11:16:09;;;;;;;25.60;23.50;;;24.40;39.70;;;;;;6218387;23;20238;-69
2022/07/29 11:19:12;;;;;;;25.93;24.10;;;23.40;43.80;;;;;;6218132;23;20166;-69
2022/07/29 11:21:46;;;;;;;28.03;26.43;;;22.60;48.80;;;;;;6243552;23;20436;-69
2022/07/29 11:24:18;;;;;;;25.83;23.43;;;22.70;51.90;;;;;;6217777;23;20460;-69
2022/07/29 11:26:45;;;;;;;27.17;25.53;;;22.90;50.40;;;;;;6218556;23;20390;-69
2022/07/29 11:29:33;;;;;;;27.20;25.23;;;23.10;50.40;;;;;;6218303;23;20390;-69
2022/07/29 11:32:11;;;;;;;26.43;24.93;;;22.90;49.50;;;;;;6217037;23;20363;-69
2022/07/29 11:34:40;;;;;;;26.00;24.60;;;22.60;50.80;;;;;;6217903;23;20469;-69
2022/07/29 11:37:09;;;;;;;28.97;27.37;;;22.50;54.20;;;;;;6217894;23;20401;-70
2022/07/29 11:39:39;;;;;;;30.57;28.83;;;22.30;51.40;;;;;;6242561;23;20379;-71
2022/07/29 11:42:21;;;;;;;28.63;27.03;;;22.40;55.50;;;;;;6217397;23;20378;-70
2022/07/29 11:45:08;;;;;;;26.60;25.10;;;22.50;52.60;;;;;;6243136;23;20396;-71
2022/07/29 11:47:46;;;;;;;27.70;25.90;;;22.70;53.50;;;;;;6242657;23;20443;-71
2022/07/29 11:50:25;;;;;;;26.73;25.27;;;22.90;53.00;;;;;;6217782;23;20385;-70
2022/07/29 11:52:51;;;;;;;27.37;25.77;;;23.00;52.20;;;;;;6218042;23;20402;-71
2022/07/29 11:55:22;;;;;;;27.60;26.07;;;23.10;51.40;;;;;;6217244;23;20424;-71
2022/07/29 11:57:59;;;;;;;25.73;24.30;;;22.90;49.80;;;;;;6217757;23;20375;-70
2022/07/29 12:00:27;;;;;;;26.60;25.20;;;22.60;48.00;;;;;;6217363;23;20398;-70
2022/07/29 12:02:55;;;;;;;27.23;25.63;;;22.50;50.10;;;;;;6242927;23;20387;-69
2022/07/29 12:05:21;;;;;;;28.47;27.17;;;22.40;48.60;;;;;;6242866;23;20858;-69
2022/07/29 12:07:49;;;;;;;25.53;24.13;;;22.30;47.40;;;;;;6244441;23;20498;-69
2022/07/29 12:10:15;;;;;;;26.83;25.10;;;22.10;46.20;;;;;;6216947;23;20371;-69
2022/07/29 12:12:41;;;;;;;26.77;25.27;;;22.00;50.10;;;;;;6218287;23;20405;-69
2022/07/29 12:15:12;;;;;;;26.47;25.10;;;22.10;52.20;;;;;;6218356;23;20375;-69
2022/07/29 12:17:39;;;;;;;26.63;25.33;;;22.10;47.40;;;;;;6217893;23;20385;-69
2022/07/29 12:20:05;;;;;;;26.93;25.23;;;22.20;46.30;;;;;;6217962;23;20382;-69
2022/07/29 12:22:37;;;;;;;25.83;24.63;;;22.30;47.30;;;;;;6218296;23;20389;-69
2022/07/29 12:25:04;;;;;;;25.80;24.60;;;22.30;47.40;;;;;;6217883;23;20474;-69
2022/07/29 12:27:32;;;;;;;24.87;23.53;;;22.30;42.30;;;;;;6243562;23;20906;-69
2022/07/29 12:30:00;;;;;;;22.10;21.00;;;22.30;44.80;;;;;;6219899;23;20441;-70
2022/07/29 12:32:38;;;;;;;24.23;22.70;;;22.30;38.90;;;;;;6219312;23;20456;-71
2022/07/29 12:35:25;;;;;;;22.63;21.60;;;22.20;38.70;;;;;;6244691;23;20417;-70
2022/07/29 12:37:52;;;;;;;21.93;20.77;;;22.20;39.60;;;;;;6219687;23;20461;-70
2022/07/29 12:40:18;;;;;;;23.30;22.00;;;22.20;38.70;;;;;;6218931;23;20473;-71
2022/07/29 12:43:10;;;;;;;23.03;21.93;;;22.30;40.70;;;;;;6216723;23;20386;-71
2022/07/29 12:45:38;;;;;;;22.47;21.07;;;22.30;38.70;;;;;;6217930;23;20393;-71
2022/07/29 12:48:05;;;;;;;22.23;21.23;;;22.60;41.50;;;;;;6219223;23;20468;-70
2022/07/29 12:50:32;;;;;;;22.63;21.43;;;22.80;40.90;;;;;;6218977;23;20378;-70
2022/07/29 12:53:18;;;;;;;22.40;21.30;;;22.90;38.90;;;;;;6218863;23;20382;-71
2022/07/29 12:55:51;;;;;;;21.37;20.40;;;22.90;39.10;;;;;;6219004;23;20693;-70
2022/07/29 12:58:36;;;;;;;21.10;20.20;;;22.70;36.70;;;;;;6219259;23;20528;-70
2022/07/29 13:01:36;;;;;;;20.40;19.40;;;22.50;39.40;;;;;;6217511;23;20398;-71